Time;durP1;ratioP1;P1;durP2;ratioP2;P2;SDS_P1;SDS_P2;PMS_P1;PMS_P2;Temp;Humidity;BMP_temperature;BMP_pressure;BME280_temperature;BME280_humidity;BME280_pressure;Samples;Min_cycle;Max_cycle;Signal;HPM_P1;HPM_P2
2023/09/02 00:01:31;;;;;;;13.80;10.38;;;;;;;20.46;69.58;95230.09;4788356;30;20208;-85
2023/09/02 00:03:56;;;;;;;18.48;10.15;;;;;;;20.25;69.97;95202.44;4772206;30;20267;-85
2023/09/02 00:06:21;;;;;;;22.20;12.73;;;;;;;20.33;70.15;95231.34;4771676;30;20469;-86
2023/09/02 00:08:47;;;;;;;20.67;11.98;;;;;;;20.00;71.24;95213.03;4788551;30;20253;-86
2023/09/02 00:11:13;;;;;;;19.90;12.35;;;;;;;20.04;71.16;95224.81;4788552;30;20529;-85
2023/09/02 00:13:38;;;;;;;23.42;12.55;;;;;;;20.03;70.89;95215.19;4788338;30;20222;-85
2023/09/02 00:16:04;;;;;;;23.90;12.02;;;;;;;20.10;70.92;95213.88;4788492;30;20176;-85
2023/09/02 00:18:29;;;;;;;18.38;11.77;;;;;;;19.87;71.11;95177.72;4788081;29;20775;-85
2023/09/02 00:20:55;;;;;;;19.58;11.82;;;;;;;19.92;70.76;95182.25;4788169;30;20165;-85
2023/09/02 00:23:23;;;;;;;18.88;11.32;;;;;;;19.98;71.16;95198.06;4788052;30;20177;-85
2023/09/02 00:25:48;;;;;;;20.63;12.02;;;;;;;19.85;71.33;95193.19;4771832;30;20625;-85
2023/09/02 00:28:13;;;;;;;16.80;10.73;;;;;;;19.91;71.43;95223.41;4771816;30;20283;-86
2023/09/02 00:30:39;;;;;;;19.38;11.88;;;;;;;19.62;71.97;95185.59;4787871;30;20259;-85
2023/09/02 00:33:04;;;;;;;17.50;10.73;;;;;;;19.83;71.81;95222.03;4771721;30;20651;-85
2023/09/02 00:35:30;;;;;;;20.33;11.23;;;;;;;19.86;71.98;95232.22;4787717;30;20277;-85
2023/09/02 00:37:55;;;;;;;17.75;10.88;;;;;;;19.86;71.83;95232.22;4771646;30;20181;-86
2023/09/02 00:40:24;;;;;;;15.80;10.05;;;;;;;19.74;71.45;95218.25;4787804;30;20169;-85
2023/09/02 00:42:51;;;;;;;16.05;10.05;;;;;;;19.67;71.84;95211.53;4787604;30;20202;-85
2023/09/02 00:45:21;;;;;;;16.05;10.70;;;;;;;19.70;71.95;95230.53;4787964;30;20165;-85
2023/09/02 00:47:48;;;;;;;24.50;11.18;;;;;;;19.59;72.07;95204.81;4771523;30;20206;-86
2023/09/02 00:50:14;;;;;;;20.38;12.15;;;;;;;19.72;72.10;95224.94;4786575;30;20425;-86
2023/09/02 00:52:39;;;;;;;18.73;10.95;;;;;;;19.74;72.03;95222.78;4787599;30;20637;-85
2023/09/02 00:55:05;;;;;;;22.10;12.30;;;;;;;19.74;71.77;95223.59;4787583;30;20176;-85
2023/09/02 00:57:30;;;;;;;16.73;11.77;;;;;;;19.46;71.39;95182.00;4787516;30;20172;-85
2023/09/02 00:59:56;;;;;;;27.23;12.27;;;;;;;19.51;71.52;95203.44;4771458;30;20177;-85
2023/09/02 01:02:22;;;;;;;26.85;12.45;;;;;;;19.79;71.79;95239.66;4787443;30;20172;-85
2023/09/02 01:04:48;;;;;;;25.52;12.55;;;;;;;19.51;71.54;95202.63;4787415;30;20212;-85
2023/09/02 01:07:14;;;;;;;22.95;11.77;;;;;;;19.39;71.75;95185.94;4787874;30;20256;-85
2023/09/02 01:09:41;;;;;;;21.42;11.88;;;;;;;19.41;71.88;95176.63;4771239;30;20168;-85
2023/09/02 01:12:06;;;;;;;24.33;12.00;;;;;;;19.58;71.85;95219.22;4787642;30;20180;-85
2023/09/02 01:14:32;;;;;;;24.20;12.13;;;;;;;19.38;72.06;95187.00;4787560;30;20625;-85
2023/09/02 01:16:57;;;;;;;21.10;12.38;;;;;;;19.41;72.29;95208.66;4787169;30;20180;-85
2023/09/02 01:19:23;;;;;;;25.17;13.18;;;;;;;19.42;72.73;95226.31;4786998;30;20315;-85
2023/09/02 01:22:07;;;;;;;24.60;12.52;;;;;;;19.32;72.77;95215.56;4787237;30;20185;-85
2023/09/02 01:24:35;;;;;;;25.85;13.38;;;;;;;19.42;73.30;95231.66;4787216;30;20204;-85
2023/09/02 01:27:16;;;;;;;20.98;11.50;;;;;;;19.44;73.32;95232.19;4787569;30;20175;-85
2023/09/02 01:29:55;;;;;;;22.45;12.05;;;;;;;19.38;73.35;95235.06;4787288;30;20260;-85
2023/09/02 01:32:22;;;;;;;24.98;14.30;;;;;;;19.18;73.89;95219.72;4789037;29;20505;-85
2023/09/02 01:34:48;;;;;;;22.33;11.93;;;;;;;19.23;73.83;95222.41;4780251;29;20207;-86
2023/09/02 01:37:17;;;;;;;16.88;10.90;;;;;;;19.03;74.09;95207.03;4780626;29;20180;-85
2023/09/02 01:39:46;;;;;;;17.92;11.85;;;;;;;18.99;73.90;95208.63;4781301;29;20185;-85
2023/09/02 01:42:13;;;;;;;20.33;10.48;;;;;;;19.03;73.99;95211.56;4769176;30;20217;-85
2023/09/02 01:44:40;;;;;;;18.23;11.10;;;;;;;19.04;74.27;95203.31;4769393;30;20245;-85
2023/09/02 01:47:06;;;;;;;20.88;10.93;;;;;;;19.28;73.86;95245.69;4753062;30;20198;-85
2023/09/02 01:49:32;;;;;;;19.00;11.05;;;;;;;19.10;73.55;95217.53;4769031;30;20205;-86
2023/09/02 01:51:59;;;;;;;27.20;11.15;;;;;;;19.02;73.59;95201.97;4753012;30;20235;-85
2023/09/02 01:54:25;;;;;;;17.77;11.13;;;;;;;19.03;73.65;95207.03;4769255;30;20166;-85
2023/09/02 01:56:50;;;;;;;17.83;11.35;;;;;;;18.94;73.91;95203.22;4768989;30;20257;-85
2023/09/02 01:59:16;;;;;;;23.63;11.93;;;;;;;19.10;73.79;95237.03;4769327;30;20626;-85
2023/09/02 02:01:41;;;;;;;23.70;12.57;;;;;;;18.93;73.78;95215.00;4768961;30;20584;-85
2023/09/02 02:04:25;;;;;;;19.67;11.77;;;;;;;19.16;73.74;95244.00;4768914;30;20238;-85
2023/09/02 02:06:55;;;;;;;26.00;12.82;;;;;;;19.03;73.74;95228.38;4752844;30;20181;-85
2023/09/02 02:09:31;;;;;;;27.35;12.93;;;;;;;19.06;74.13;95243.91;4768990;30;20173;-85
2023/09/02 02:11:57;;;;;;;22.25;12.57;;;;;;;18.89;74.56;95223.72;4769134;30;20199;-85
2023/09/02 02:14:23;;;;;;;20.88;12.00;;;;;;;18.98;74.51;95244.38;4768997;30;20548;-85
2023/09/02 02:16:48;;;;;;;20.25;11.88;;;;;;;18.95;74.87;95252.88;4783783;29;20181;-85
2023/09/02 02:19:14;;;;;;;19.15;11.48;;;;;;;18.80;74.78;95232.19;4773886;30;20721;-85
2023/09/02 02:21:39;;;;;;;17.58;11.23;;;;;;;18.91;75.03;95254.44;4775452;30;20180;-85
2023/09/02 02:24:05;;;;;;;20.67;11.60;;;;;;;18.77;75.04;95238.03;4779650;29;20715;-85
2023/09/02 02:26:30;;;;;;;18.75;11.80;;;;;;;18.67;75.03;95227.28;4786353;29;20196;-85
2023/09/02 02:28:55;;;;;;;19.48;11.27;;;;;;;18.70;74.90;95229.44;4784978;30;20304;-86
2023/09/02 02:31:21;;;;;;;19.00;11.05;;;;;;;18.68;74.91;95228.09;4786621;30;20666;-85
2023/09/02 02:33:46;;;;;;;17.70;10.27;;;;;;;18.82;74.94;95251.44;4786629;29;20256;-85
2023/09/02 02:36:11;;;;;;;20.63;10.00;;;;;;;18.79;74.83;95248.44;4786849;30;20205;-85
2023/09/02 02:38:37;;;;;;;16.02;10.32;;;;;;;18.60;74.85;95218.66;4784853;29;20172;-85
2023/09/02 02:41:02;;;;;;;18.67;10.30;;;;;;;18.75;75.16;95258.03;4777428;30;20178;-85
2023/09/02 02:43:28;;;;;;;18.33;10.90;;;;;;;18.61;75.08;95235.47;4778053;29;20265;-85
2023/09/02 02:45:54;;;;;;;14.85;10.13;;;;;;;18.76;75.03;95252.44;4779895;29;20208;-85
2023/09/02 02:48:29;;;;;;;16.50;10.73;;;;;;;18.70;74.94;95247.28;4780568;30;20200;-85
2023/09/02 02:50:55;;;;;;;17.38;10.93;;;;;;;18.70;74.79;95245.44;4779833;29;20738;-85
2023/09/02 02:53:22;;;;;;;11.73;8.85;;;;;;;18.59;74.83;95230.41;4778233;30;20181;-85
2023/09/02 02:55:47;;;;;;;20.42;10.93;;;;;;;18.73;75.10;95254.81;4778419;30;20169;-85
2023/09/02 02:58:15;;;;;;;18.27;10.00;;;;;;;18.55;75.20;95234.59;4789505;29;20184;-85
2023/09/02 03:00:42;;;;;;;13.43;9.35;;;;;;;18.64;75.46;95245.63;4789473;29;20192;-85
2023/09/02 03:03:08;;;;;;;13.15;9.57;;;;;;;18.23;75.23;95194.53;4789447;30;20265;-85
2023/09/02 03:05:38;;;;;;;14.98;9.15;;;;;;;18.50;75.25;95241.75;4788102;30;20192;-85
2023/09/02 03:08:05;;;;;;;13.40;9.15;;;;;;;18.57;75.35;95245.03;4788041;30;20216;-85
2023/09/02 03:10:32;;;;;;;19.30;10.48;;;;;;;18.61;75.47;95259.47;4789314;30;20161;-85
2023/09/02 03:12:57;;;;;;;12.35;9.27;;;;;;;18.31;75.43;95215.41;4789509;30;20177;-85
2023/09/02 03:15:22;;;;;;;15.23;10.38;;;;;;;18.59;75.21;95254.41;4789758;30;20255;-85
2023/09/02 03:17:48;;;;;;;13.63;9.65;;;;;;;18.53;75.40;95255.34;4787941;30;20211;-85
2023/09/02 03:20:13;;;;;;;19.23;9.90;;;;;;;18.32;75.32;95235.69;4804466;29;20258;-81
2023/09/02 03:22:41;;;;;;;14.38;9.73;;;;;;;18.14;75.27;95198.69;4807064;29;20179;-82
2023/09/02 03:25:07;;;;;;;18.02;9.45;;;;;;;18.40;75.69;95250.44;4806993;29;20176;-82
2023/09/02 03:27:37;;;;;;;11.52;9.05;;;;;;;18.48;75.75;95260.66;4807220;29;20203;-82
2023/09/02 03:30:03;;;;;;;14.40;9.63;;;;;;;18.43;75.50;95253.38;4806954;29;20632;-82
2023/09/02 03:32:28;;;;;;;16.08;10.38;;;;;;;18.19;75.76;95216.59;4806935;29;20180;-82
2023/09/02 03:34:54;;;;;;;14.18;10.15;;;;;;;18.36;75.70;95244.78;4807483;29;20221;-82
2023/09/02 03:37:19;;;;;;;14.48;10.57;;;;;;;18.45;75.34;95261.13;4806846;29;20172;-82
2023/09/02 03:39:45;;;;;;;16.02;11.38;;;;;;;18.18;75.59;95221.09;4807425;29;20225;-82
2023/09/02 03:42:12;;;;;;;15.48;10.68;;;;;;;18.32;75.61;95246.34;4801649;29;20172;-82
2023/09/02 03:44:37;;;;;;;17.67;10.65;;;;;;;18.02;75.67;95201.47;4796194;29;20214;-82
2023/09/02 03:47:03;;;;;;;14.15;10.60;;;;;;;18.15;75.84;95221.63;4796871;29;20177;-82
2023/09/02 03:49:28;;;;;;;14.52;10.65;;;;;;;18.22;75.69;95246.22;4783262;30;20961;-82
2023/09/02 03:51:54;;;;;;;16.30;12.02;;;;;;;18.38;75.63;95271.19;4789121;30;20234;-82
2023/09/02 03:54:20;;;;;;;13.77;10.63;;;;;;;18.34;75.82;95278.06;4772024;30;20276;-82
2023/09/02 03:56:45;;;;;;;17.40;10.48;;;;;;;18.32;76.09;95274.84;4788511;30;20192;-82
2023/09/02 03:59:10;;;;;;;25.10;10.65;;;;;;;18.31;76.13;95275.91;4788467;30;20248;-82
2023/09/02 04:01:36;;;;;;;23.45;10.23;;;;;;;18.20;75.93;95258.97;4788341;30;20233;-82
2023/09/02 04:04:01;;;;;;;16.10;10.45;;;;;;;18.24;75.96;95261.97;4788360;30;20177;-82
2023/09/02 04:06:27;;;;;;;15.05;9.70;;;;;;;18.23;76.06;95266.50;4788332;30;20211;-83
2023/09/02 04:08:52;;;;;;;20.38;11.07;;;;;;;18.26;75.93;95257.97;4788502;30;20189;-82
2023/09/02 04:11:18;;;;;;;15.48;9.85;;;;;;;18.29;75.67;95260.16;4788255;30;20207;-82
2023/09/02 04:13:43;;;;;;;14.98;9.30;;;;;;;18.40;75.27;95271.75;4788164;30;20180;-83
2023/09/02 04:16:10;;;;;;;16.15;11.00;;;;;;;18.43;75.00;95279.22;4771986;30;20177;-83
2023/09/02 04:18:36;;;;;;;15.88;9.98;;;;;;;18.37;75.14;95273.06;4788137;30;20270;-82
2023/09/02 04:21:03;;;;;;;16.38;9.98;;;;;;;18.37;75.26;95269.56;4787980;30;20234;-81
2023/09/02 04:23:28;;;;;;;23.40;10.75;;;;;;;18.30;75.52;95267.09;4788568;30;20172;-81
2023/09/02 04:25:55;;;;;;;17.52;9.50;;;;;;;18.23;75.41;95257.69;4787927;29;20192;-81
2023/09/02 04:28:21;;;;;;;17.65;10.43;;;;;;;18.45;75.86;95282.47;4793150;29;20703;-81
2023/09/02 04:30:47;;;;;;;17.35;12.25;;;;;;;18.38;75.54;95265.84;4793425;29;20191;-81
2023/09/02 04:33:14;;;;;;;16.00;10.25;;;;;;;18.55;75.64;95284.44;4779799;29;20172;-81
2023/09/02 04:35:42;;;;;;;15.95;10.60;;;;;;;18.60;75.47;95298.66;4776198;30;20337;-81
2023/09/02 04:38:07;;;;;;;16.55;10.95;;;;;;;18.48;75.65;95265.97;4771505;30;20185;-81
2023/09/02 04:40:37;;;;;;;15.70;10.32;;;;;;;18.47;75.70;95253.69;4787596;30;20752;-81
2023/09/02 04:43:03;;;;;;;16.23;11.02;;;;;;;18.68;75.01;95268.88;4787673;30;20160;-80
2023/09/02 04:45:32;;;;;;;15.40;11.35;;;;;;;18.76;74.91;95278.31;4788122;30;20599;-81
2023/09/02 04:47:57;;;;;;;13.68;10.13;;;;;;;18.91;74.89;95294.47;4787447;30;20257;-80
2023/09/02 04:50:23;;;;;;;16.73;10.50;;;;;;;18.93;74.80;95280.88;4771382;30;20538;-81
2023/09/02 04:52:49;;;;;;;18.98;11.38;;;;;;;18.87;74.60;95250.66;4787833;30;20185;-80
2023/09/02 04:55:17;;;;;;;19.27;11.32;;;;;;;19.31;74.18;95298.56;4777824;29;20631;-81
2023/09/02 04:57:43;;;;;;;20.77;10.88;;;;;;;19.50;73.66;95302.50;4794290;29;20233;-81
2023/09/02 05:00:09;;;;;;;18.80;10.18;;;;;;;19.68;72.80;95291.41;4795963;29;20638;-81
2023/09/02 05:02:34;;;;;;;14.90;10.45;;;;;;;19.95;72.07;95297.47;4791403;29;20172;-81
2023/09/02 05:05:00;;;;;;;15.43;10.68;;;;;;;20.15;70.85;95299.44;4788533;29;20176;-81
2023/09/02 05:07:26;;;;;;;17.73;11.27;;;;;;;20.26;71.03;95285.06;4778507;29;20196;-81
2023/09/02 05:09:53;;;;;;;14.95;10.00;;;;;;;20.40;69.89;95271.25;4793678;29;20184;-81
2023/09/02 05:12:20;;;;;;;17.58;10.52;;;;;;;20.75;69.48;95294.66;4793719;29;20241;-81
2023/09/02 05:14:45;;;;;;;19.00;11.25;;;;;;;20.74;69.12;95263.63;4793994;29;20176;-81
2023/09/02 05:17:10;;;;;;;13.43;8.27;;;;;;;21.23;67.03;95313.00;4796328;29;20679;-81
2023/09/02 05:19:36;;;;;;;10.70;8.57;;;;;;;21.29;66.92;95306.56;4795232;29;20224;-82
2023/09/02 05:22:01;;;;;;;11.50;8.00;;;;;;;21.66;66.56;95329.63;4797380;29;20191;-82
2023/09/02 05:24:27;;;;;;;12.13;8.25;;;;;;;21.60;64.68;95299.34;4788983;29;20179;-82
2023/09/02 05:26:52;;;;;;;10.00;7.70;;;;;;;21.94;64.32;95328.28;4805087;29;20175;-83
2023/09/02 05:29:17;;;;;;;12.82;7.45;;;;;;;21.99;64.07;95306.84;4804963;29;20282;-83
2023/09/02 05:31:43;;;;;;;12.85;7.65;;;;;;;22.18;62.97;95308.69;4805109;29;20168;-83
2023/09/02 05:34:08;;;;;;;10.10;7.80;;;;;;;22.28;62.20;95299.81;4804996;29;20180;-83
2023/09/02 05:36:33;;;;;;;11.48;8.32;;;;;;;22.42;61.47;95300.81;4805263;29;20251;-83
2023/09/02 05:38:59;;;;;;;12.25;7.50;;;;;;;22.71;61.89;95319.78;4788770;29;20188;-83
2023/09/02 05:41:24;;;;;;;11.50;7.78;;;;;;;22.88;61.54;95312.19;4796011;29;20180;-83
2023/09/02 05:43:50;;;;;;;10.70;7.80;;;;;;;22.98;60.66;95297.91;4795262;29;20184;-83
2023/09/02 05:46:16;;;;;;;10.18;6.57;;;;;;;23.22;60.04;95293.47;4792328;29;20176;-85
2023/09/02 05:48:41;;;;;;;10.27;7.50;;;;;;;23.44;59.08;95297.63;4794920;29;20215;-87
2023/09/02 05:51:06;;;;;;;8.93;6.63;;;;;;;23.60;57.92;95313.38;4804922;29;20174;-83
2023/09/02 05:53:32;;;;;;;8.20;7.00;;;;;;;23.87;57.97;95329.00;4805156;29;20164;-87
2023/09/02 05:55:57;;;;;;;12.77;7.30;;;;;;;24.10;57.58;95326.66;4804761;29;20172;-86
2023/09/02 05:58:27;;;;;;;10.60;7.90;;;;;;;24.14;57.20;95296.19;4804781;29;20684;-86
2023/09/02 06:00:52;;;;;;;8.98;7.43;;;;;;;24.50;56.68;95326.25;4804655;29;20297;-84
2023/09/02 06:03:18;;;;;;;9.43;6.82;;;;;;;24.55;56.19;95314.63;4804854;29;20247;-84
2023/09/02 06:05:43;;;;;;;12.15;7.43;;;;;;;24.76;55.65;95326.75;4804676;29;20616;-86
2023/09/02 06:08:09;;;;;;;7.68;6.78;;;;;;;24.97;55.39;95330.03;4804993;29;20268;-86
2023/09/02 06:10:35;;;;;;;8.77;7.55;;;;;;;24.98;53.62;95318.16;4804577;29;20259;-83
2023/09/02 06:13:00;;;;;;;9.98;7.40;;;;;;;25.26;53.71;95340.66;4802706;29;20281;-86
2023/09/02 06:15:26;;;;;;;7.80;6.82;;;;;;;25.40;54.51;95328.09;4796177;29;20176;-86
2023/09/02 06:17:51;;;;;;;8.98;7.30;;;;;;;25.45;52.73;95328.00;4798195;29;20184;-87
2023/09/02 06:20:20;;;;;;;9.35;7.20;;;;;;;25.67;53.23;95341.72;4799985;29;20608;-87
2023/09/02 06:22:45;;;;;;;8.98;7.00;;;;;;;25.69;52.82;95325.22;4776232;30;20780;-84
2023/09/02 06:25:11;;;;;;;8.43;6.90;;;;;;;26.08;51.29;95341.84;4781475;29;20176;-87
2023/09/02 06:27:37;;;;;;;7.43;5.47;;;;;;;26.31;49.32;95342.81;4798345;29;20721;-84
2023/09/02 06:30:03;;;;;;;9.80;5.65;;;;;;;26.25;48.80;95312.38;4797683;29;20180;-85
2023/09/02 06:32:28;;;;;;;6.22;5.63;;;;;;;26.36;49.64;95309.53;4805906;29;20688;-87
2023/09/02 06:34:54;;;;;;;8.30;5.85;;;;;;;26.62;49.29;95333.06;4807614;29;20180;-83
2023/09/02 06:37:19;;;;;;;8.32;6.28;;;;;;;26.76;48.93;95318.72;4797713;29;20211;-83
2023/09/02 06:39:45;;;;;;;7.05;6.35;;;;;;;27.10;48.64;95329.94;4795541;29;20263;-85
2023/09/02 06:42:10;;;;;;;12.98;6.15;;;;;;;27.00;47.61;95293.09;4798080;29;20180;-82
2023/09/02 06:44:36;;;;;;;8.30;6.47;;;;;;;27.30;47.33;95326.78;4782596;29;20180;-82
2023/09/02 06:47:01;;;;;;;7.63;5.80;;;;;;;27.40;46.27;95318.47;4798374;29;20181;-84
2023/09/02 06:49:26;;;;;;;7.38;6.32;;;;;;;27.59;47.27;95317.53;4784855;29;20188;-81
2023/09/02 06:51:52;;;;;;;8.88;6.28;;;;;;;27.74;46.11;95315.25;4800175;29;20259;-83
2023/09/02 06:54:17;;;;;;;8.40;6.15;;;;;;;27.76;46.22;95285.94;4785196;29;20246;-80
2023/09/02 06:56:45;;;;;;;9.68;6.13;;;;;;;27.92;45.86;95286.38;4796972;29;20180;-82
2023/09/02 06:59:10;;;;;;;7.45;6.32;;;;;;;28.34;44.44;95320.25;4798580;29;20171;-84
2023/09/02 07:01:36;;;;;;;6.47;5.88;;;;;;;28.58;44.52;95346.97;4796834;29;20262;-83
2023/09/02 07:04:01;;;;;;;11.15;6.03;;;;;;;28.01;44.59;95319.72;4781082;29;20185;-81
2023/09/02 07:06:27;;;;;;;6.55;5.85;;;;;;;27.69;45.48;95337.00;4796928;29;20668;-83
2023/09/02 07:08:52;;;;;;;8.10;5.90;;;;;;;27.57;45.70;95338.66;4792753;29;20196;-84
2023/09/02 07:11:19;;;;;;;8.70;6.55;;;;;;;27.48;46.37;95302.59;4793989;29;20183;-83
2023/09/02 07:13:47;;;;;;;12.48;6.95;;;;;;;27.82;46.05;95305.59;4799642;29;20183;-81
2023/09/02 07:16:15;;;;;;;6.22;5.60;;;;;;;28.51;45.01;95341.19;4796952;29;20177;-81
2023/09/02 07:18:40;;;;;;;7.97;5.90;;;;;;;28.90;44.12;95333.06;4798356;29;20228;-83
2023/09/02 07:21:05;;;;;;;8.80;6.05;;;;;;;29.18;43.58;95322.75;4799272;29;20188;-81
2023/09/02 07:23:32;;;;;;;8.55;6.53;;;;;;;29.47;42.57;95341.19;4797241;29;20637;-85
2023/09/02 07:25:59;;;;;;;10.18;6.75;;;;;;;29.30;42.14;95341.16;4798959;29;20249;-85
2023/09/02 07:28:27;;;;;;;7.78;6.30;;;;;;;29.16;42.14;95329.63;4779982;29;20274;-82
2023/09/02 07:30:52;;;;;;;11.82;6.22;;;;;;;28.82;43.29;95325.72;4780433;29;20189;-80
2023/09/02 07:33:18;;;;;;;7.80;6.13;;;;;;;29.32;43.04;95346.25;4796366;29;20176;-82
2023/09/02 07:35:43;;;;;;;6.82;5.68;;;;;;;29.38;41.54;95320.59;4778750;29;20657;-84
2023/09/02 07:38:09;;;;;;;9.85;6.07;;;;;;;29.59;41.24;95321.53;4796468;29;20176;-80
2023/09/02 07:40:34;;;;;;;6.30;5.68;;;;;;;29.84;41.41;95328.09;4795034;29;20640;-82
2023/09/02 07:43:02;;;;;;;7.75;6.32;;;;;;;30.24;41.12;95347.72;4797400;29;20643;-82
2023/09/02 07:45:28;;;;;;;9.85;5.80;;;;;;;30.62;40.67;95331.44;4796529;29;20275;-82
2023/09/02 07:47:54;;;;;;;7.00;6.30;;;;;;;30.84;39.31;95325.78;4797449;29;20207;-85
2023/09/02 07:50:19;;;;;;;9.45;6.18;;;;;;;30.93;38.75;95309.41;4799079;29;20184;-85
2023/09/02 07:52:48;;;;;;;7.78;6.65;;;;;;;31.36;38.47;95334.44;4780644;29;20183;-82
2023/09/02 07:55:13;;;;;;;7.57;6.57;;;;;;;31.21;37.44;95331.53;4797882;29;20202;-84
2023/09/02 07:57:39;;;;;;;6.75;5.85;;;;;;;31.13;38.59;95337.81;4782124;29;20621;-85
2023/09/02 08:00:05;;;;;;;8.25;5.82;;;;;;;31.13;38.41;95332.38;4793716;29;21031;-83
2023/09/02 08:02:30;;;;;;;7.55;5.72;;;;;;;31.40;37.83;95348.19;4783453;29;20180;-81
2023/09/02 08:04:56;;;;;;;8.07;6.45;;;;;;;31.00;38.16;95345.03;4805347;29;20268;-83
2023/09/02 08:07:21;;;;;;;12.23;6.03;;;;;;;30.80;39.22;95349.28;4781204;29;20208;-78
2023/09/02 08:09:50;;;;;;;7.88;5.82;;;;;;;30.46;39.13;95346.69;4797182;29;20245;-77
2023/09/02 08:12:15;;;;;;;8.52;6.28;;;;;;;29.91;39.88;95341.97;4801389;29;20728;-77
2023/09/02 08:14:41;;;;;;;6.85;5.63;;;;;;;29.43;41.51;95342.94;4795173;29;20276;-80
2023/09/02 08:17:06;;;;;;;7.07;6.15;;;;;;;29.47;40.48;95332.25;4793965;29;20237;-81
2023/09/02 08:19:32;;;;;;;11.05;6.40;;;;;;;29.56;40.84;95346.63;4798286;29;20235;-81
2023/09/02 08:21:58;;;;;;;7.55;5.90;;;;;;;29.68;40.67;95326.97;4795885;29;20177;-82
2023/09/02 08:27:46;;;;;;;7.63;5.38;;;;;;;29.92;38.99;95327.28;5004972;24;20282;-82
2023/09/02 08:30:13;;;;;;;8.05;5.50;;;;;;;30.05;39.13;95336.41;4788155;29;20226;-79
2023/09/02 08:32:38;;;;;;;6.60;5.82;;;;;;;30.26;38.17;95338.13;4794032;29;20741;-80
2023/09/02 08:35:05;;;;;;;9.25;5.95;;;;;;;30.48;37.89;95341.72;4796228;29;20180;-81
2023/09/02 08:37:31;;;;;;;6.93;5.43;;;;;;;30.00;39.08;95329.22;4796688;29;20179;-84
2023/09/02 08:39:57;;;;;;;6.18;5.20;;;;;;;30.13;39.08;95330.16;4795899;29;20187;-81
2023/09/02 08:42:25;;;;;;;6.07;5.10;;;;;;;30.25;38.74;95331.09;4799582;29;20184;-81
2023/09/02 08:44:52;;;;;;;6.13;5.28;;;;;;;30.00;38.67;95329.22;4793526;29;20199;-81
2023/09/02 08:47:19;;;;;;;6.57;5.30;;;;;;;29.21;40.22;95321.34;4797293;29;20176;-83
2023/09/02 08:49:45;;;;;;;8.73;5.22;;;;;;;29.35;40.57;95319.28;4778735;29;20289;-79
2023/09/02 08:52:12;;;;;;;5.80;4.97;;;;;;;29.82;39.89;95328.41;4796659;29;20215;-77
2023/09/02 08:54:39;;;;;;;6.63;4.95;;;;;;;30.02;39.35;95316.91;4793469;29;20193;-81
2023/09/02 08:57:05;;;;;;;5.60;5.10;;;;;;;30.35;38.52;95341.63;4794195;29;20188;-85
2023/09/02 08:59:31;;;;;;;11.15;5.95;;;;;;;30.49;38.36;95332.44;4795643;29;20180;-85
2023/09/02 09:01:57;;;;;;;8.77;5.30;;;;;;;29.79;39.25;95310.03;4792128;29;20177;-86
2023/09/02 09:04:28;;;;;;;7.65;5.78;;;;;;;29.35;39.79;95322.00;4795571;29;20185;-84
2023/09/02 09:06:53;;;;;;;7.43;5.53;;;;;;;28.95;41.22;95302.31;4776524;29;20659;-88
2023/09/02 09:09:19;;;;;;;6.32;5.00;;;;;;;28.76;41.09;95289.03;4781158;29;20203;-86
2023/09/02 09:11:47;;;;;;;9.40;5.15;;;;;;;29.18;41.63;95319.25;4793577;29;20208;-86
2023/09/02 09:14:22;;;;;;;6.55;5.25;;;;;;;29.37;40.11;95308.94;4778299;29;20573;-85
2023/09/02 09:16:51;;;;;;;7.05;5.50;;;;;;;29.53;40.46;95301.91;4779193;29;20722;-86
2023/09/02 09:19:20;;;;;;;6.68;5.10;;;;;;;29.55;40.45;95296.97;4779707;29;20185;-87
2023/09/02 09:21:45;;;;;;;6.03;5.40;;;;;;;29.31;40.38;95312.91;4792776;29;20194;-86
2023/09/02 09:24:13;;;;;;;7.15;5.15;;;;;;;29.53;40.06;95311.97;4796016;29;20188;-89
2023/09/02 09:26:42;;;;;;;8.70;5.22;;;;;;;29.58;40.10;95309.09;4780284;29;20188;-88
2023/09/02 09:29:15;;;;;;;7.75;5.25;;;;;;;29.44;39.88;95300.31;4785302;29;20239;-85
2023/09/02 09:31:41;;;;;;;5.70;5.10;;;;;;;29.59;39.95;95291.69;4778457;29;20189;-85
2023/09/02 09:34:06;;;;;;;5.60;4.63;;;;;;;29.80;39.27;95289.91;4775900;29;20182;-83
2023/09/02 09:36:33;;;;;;;5.13;4.03;;;;;;;29.79;39.55;95261.16;4795881;29;20179;-87
2023/09/02 09:39:04;;;;;;;6.38;3.95;;;;;;;30.04;38.73;95288.63;4797966;29;20250;-88
2023/09/02 09:41:29;;;;;;;5.68;4.53;;;;;;;29.92;38.76;95298.22;4788605;29;20191;-88
2023/09/02 09:44:07;;;;;;;5.40;4.22;;;;;;;29.52;40.00;95284.03;4800292;29;20192;-89
2023/09/02 09:46:46;;;;;;;7.25;4.25;;;;;;;29.34;40.56;95271.56;4778416;29;20283;-89
2023/09/02 09:49:22;;;;;;;6.88;5.20;;;;;;;29.33;40.66;95288.94;4798316;29;20604;-89
2023/09/02 09:51:51;;;;;;;4.88;4.03;;;;;;;29.64;40.67;95284.19;4793305;29;20244;-87
2023/09/02 09:54:17;;;;;;;4.93;4.40;;;;;;;29.81;39.80;95277.13;4793916;29;20637;-87
2023/09/02 09:56:43;;;;;;;5.57;4.32;;;;;;;29.93;39.48;95267.19;4794489;29;20190;-86
2023/09/02 09:59:09;;;;;;;4.80;3.97;;;;;;;29.96;38.77;95291.03;4795774;29;20630;-89
2023/09/02 10:01:35;;;;;;;5.10;4.35;;;;;;;29.98;38.98;95290.72;4778831;29;20188;-86
2023/09/02 10:04:07;;;;;;;7.63;4.05;;;;;;;29.63;40.11;95273.66;4795874;29;20196;-89
2023/09/02 10:06:37;;;;;;;5.38;3.97;;;;;;;29.51;39.30;95268.06;4796105;29;20203;-87
2023/09/02 10:09:03;;;;;;;5.18;4.43;;;;;;;29.62;39.56;95277.47;4795553;29;20207;-87
2023/09/02 10:11:29;;;;;;;4.43;4.03;;;;;;;29.47;39.98;95265.22;4795516;29;20237;-87
2023/09/02 10:13:56;;;;;;;7.95;4.07;;;;;;;29.33;39.81;95225.75;4779571;29;20192;-87
2023/09/02 10:16:22;;;;;;;4.80;4.20;;;;;;;29.79;39.68;95276.66;4797036;29;20173;-87
2023/09/02 10:18:49;;;;;;;4.57;4.18;;;;;;;29.75;39.07;95259.44;4796794;29;20179;-88
2023/09/02 10:21:16;;;;;;;7.45;4.50;;;;;;;29.52;40.10;95256.09;4795319;29;20179;-82
2023/09/02 10:23:48;;;;;;;7.47;4.32;;;;;;;29.38;38.81;95255.47;4803104;29;20215;-88
2023/09/02 10:26:23;;;;;;;9.20;4.00;;;;;;;29.47;38.99;95264.41;4778502;29;20187;-87
2023/09/02 10:28:49;;;;;;;4.88;4.05;;;;;;;29.42;39.72;95246.34;4800904;29;20843;-88
2023/09/02 10:31:21;;;;;;;5.38;4.45;;;;;;;29.48;39.09;95255.16;4777394;29;20172;-87
2023/09/02 10:34:02;;;;;;;6.35;4.40;;;;;;;29.61;39.18;95249.53;4793569;29;21024;-87
2023/09/02 10:36:32;;;;;;;6.93;4.45;;;;;;;29.77;39.10;95254.47;4774594;29;20561;-88
2023/09/02 10:39:02;;;;;;;4.82;4.32;;;;;;;29.91;39.28;95249.66;4800306;29;20188;-87
2023/09/02 10:41:30;;;;;;;5.25;4.45;;;;;;;30.02;39.24;95242.75;4798139;29;20184;-87
2023/09/02 10:43:55;;;;;;;4.97;4.47;;;;;;;29.96;37.82;95222.34;4800290;29;20180;-87
2023/09/02 10:46:21;;;;;;;6.18;4.10;;;;;;;30.12;38.23;95236.19;4797716;29;20179;-87
2023/09/02 10:48:48;;;;;;;4.88;4.07;;;;;;;30.28;38.69;95248.09;4791838;29;20205;-87
2023/09/02 10:51:14;;;;;;;11.43;4.30;;;;;;;30.21;38.03;95229.59;4795436;29;20725;-87
2023/09/02 10:53:51;;;;;;;5.20;3.40;;;;;;;30.16;36.30;95254.25;4800950;29;20176;-87
2023/09/02 10:56:31;;;;;;;4.63;3.88;;;;;;;29.59;35.80;95240.91;4797068;29;20203;-88
2023/09/02 10:58:59;;;;;;;5.55;3.92;;;;;;;29.44;37.30;95251.47;4798219;29;20233;-88
2023/09/02 11:01:25;;;;;;;4.13;3.72;;;;;;;29.16;36.74;95235.47;4806889;29;20961;-88
2023/09/02 11:03:59;;;;;;;4.78;3.70;;;;;;;29.22;37.09;95239.66;4795046;29;20188;-88
2023/09/02 11:06:25;;;;;;;4.47;3.85;;;;;;;29.32;36.78;95243.16;4780141;29;20184;-88
2023/09/02 11:08:53;;;;;;;5.80;3.45;;;;;;;29.53;36.98;95244.91;4778219;29;20209;-86
2023/09/02 11:11:20;;;;;;;4.53;3.60;;;;;;;29.72;37.17;95247.28;4782323;29;20263;-86
2023/09/02 11:14:07;;;;;;;5.18;4.05;;;;;;;29.91;37.33;95249.66;4795314;29;20255;-86
2023/09/02 11:16:33;;;;;;;5.15;3.55;;;;;;;29.84;36.86;95216.78;4793885;29;20189;-84
2023/09/02 11:19:00;;;;;;;4.20;3.75;;;;;;;30.10;36.88;95239.22;4779481;29;20183;-86
2023/09/02 11:21:46;;;;;;;8.02;4.03;;;;;;;30.24;36.15;95244.47;4799158;29;20187;-84
2023/09/02 11:24:25;;;;;;;4.03;3.63;;;;;;;29.91;34.92;95217.06;4780953;29;20187;-84
2023/09/02 11:26:57;;;;;;;4.45;4.05;;;;;;;29.76;35.88;95231.94;4798015;29;20610;-85
2023/09/02 11:29:26;;;;;;;4.60;3.40;;;;;;;29.85;34.88;95237.34;4798055;29;20303;-84